Nanping, China
Current Conditions -  °F | °C
As of 4:00 AM on Monday 24 Nov 2014 (Local Time) from ZSFZ Reporting Station
Broken Clouds Broken Clouds  
Wind Chill: 70°   Ceiling: 1300
Heat Index: 70°   Visibility: 6mi
Dew Point: 64°   Wind: 4mph
Humidity: 83%   Direction: 360°N
Pressure: 30"   Gusts: NA
Location:  26.63°N, 118.17°E
Report Text: ZSFZ 232000Z 36002MPS 300V030 9999 BKN013 21/18 Q1016 NOSIG
Loading
Personal Weather Stations






























Interactive Weather Map New forecast layout! Learn more

10-Day Weather Forecast

Advertisements
Track Severe Weather on mobile